Wheatland, CA (95692)

2:28 PM PDT on July 01, 2015 (GMT -0700)
Wheatland Ranch 5 | | Change Station
CLOSE
Current Station
Personal Weather Station
Location: Wheatland, CA
Elevation: 82 ft
Nearby Weather Stations

Elev 82 ft 39.02 °N, 121.42 °W | Updated 1 minute ago

Partly Cloudy
Partly Cloudy
100.9 °F
Feels Like 102 °F
N
7.8
Wind Variable Wind from SSE
Gusts 10.3 mph

Today
High -- | Low -- °F
--% Chance of Precip.
Yesterday
High -- | Low -- °F
Precip. -- in
5:43 AM 8:35 PM
Full, 100% visible
Pressure 29.86 in
Visibility 10.0 miles
Clouds Few 11000 ft
Scattered Clouds 17000 ft
Mostly Cloudy 20000 ft
Heat Index 102 °F
Dew Point 61 °F
Humidity 27%
Rainfall 0.00 in
Snow Depth Not available.
UV 6 out of 12
Pollen 6.00 out of 12
Air Quality Not available.
Flu Activity Not available.
METAR KBAB 012058Z AUTO 20010KT 10SM FEW110 SCT170 BKN200 38/13 A2985 RMK AO2 SLP110 T03750127 50010

More Conditions Fewer Conditions

Pressure 29.86 in
Visibility 10.0 miles
Clouds Few 11000 ft
Scattered Clouds 17000 ft
Mostly Cloudy 20000 ft
Heat Index 102 °F
Dew Point 61 °F
Humidity 27%
Rainfall 0.00 in
Snow Depth Not available.
UV 6 out of 12
Pollen 6.00 out of 12
Air Quality Not available.
Flu Activity Not available.
METAR KBAB 012058Z AUTO 20010KT 10SM FEW110 SCT170 BKN200 38/13 A2985 RMK AO2 SLP110 T03750127 50010

More Conditions Fewer Conditions

10-Day Weather Forecast

×

Almanac

Astronomy

Jul. 01, 2015 Rise Set
Actual Time
Civil Twilight
Nautical Twilight
Astronomical Twilight
Moon
Length of Visible Light
Length of Day
Tomorrow will be .
, % of the Moon is Illuminated

Today's Extremes

State Highs State Lows

Community

WunderPhotos

Upload Photos

1,834,287 photos uploaded!

WunderBlogs® & News

Nearby

Air Quality

  Air Quality AQ Index Pollutant
Not available.

Snow Depth

Station Depth Elevation

Earthquake Activity

City Distance Mag. Time & Date
Minimum magnitude displayed is 2.5.

Coastal Water Temperatures

Place Temperature

Stations

Nearby Weather Stations

Station Location Temp. Windchill Dew Point Humidity Wind Precip. Elev Updated Type